Terminal Aerodrome Forecast
Issued by NWS

Home | Current Version | Previous Version | Text Only | Print | Product List | Glossary On
Versions: 1 2 3 4 5 6 7 8 9 10 11 12 13 14
000
FTUS45 KRIW 202300
TAFCPR
TAF
KCPR 202320Z 2100/2124 22015G23KT P6SM SKC
     FM210200 22012KT P6SM FEW150
     FM211600 22022G30KT P6SM SCT070 BKN100=

USA.gov is the U.S. government's official web portal to all federal, state and local government web resources and services.